sensor_id;sensor_type;location;lat;lon;timestamp;temperature;humidity
9849;DHT22;4963;51.444;6.528;2023-09-19T00:00:19;17.50;99.90
9849;DHT22;4963;51.444;6.528;2023-09-19T00:02:52;17.50;99.90
9849;DHT22;4963;51.444;6.528;2023-09-19T00:05:19;17.40;99.90
9849;DHT22;4963;51.444;6.528;2023-09-19T00:07:50;17.40;99.90
9849;DHT22;4963;51.444;6.528;2023-09-19T00:10:17;17.40;99.90
9849;DHT22;4963;51.444;6.528;2023-09-19T00:12:45;17.40;99.90
9849;DHT22;4963;51.444;6.528;2023-09-19T00:15:13;17.30;99.90
9849;DHT22;4963;51.444;6.528;2023-09-19T00:17:43;17.30;99.90
9849;DHT22;4963;51.444;6.528;2023-09-19T00:20:12;17.30;99.90
9849;DHT22;4963;51.444;6.528;2023-09-19T00:22:40;17.20;99.90
9849;DHT22;4963;51.444;6.528;2023-09-19T00:25:08;17.20;99.90
9849;DHT22;4963;51.444;6.528;2023-09-19T00:27:37;17.30;99.90
9849;DHT22;4963;51.444;6.528;2023-09-19T00:30:08;17.20;99.90
9849;DHT22;4963;51.444;6.528;2023-09-19T00:32:40;17.10;99.90
9849;DHT22;4963;51.444;6.528;2023-09-19T00:35:07;17.10;99.90
9849;DHT22;4963;51.444;6.528;2023-09-19T00:37:37;17.20;99.90
9849;DHT22;4963;51.444;6.528;2023-09-19T00:40:06;17.20;99.90
9849;DHT22;4963;51.444;6.528;2023-09-19T00:42:37;17.30;99.90
9849;DHT22;4963;51.444;6.528;2023-09-19T00:45:06;17.30;99.90
9849;DHT22;4963;51.444;6.528;2023-09-19T00:47:35;17.30;99.90
9849;DHT22;4963;51.444;6.528;2023-09-19T00:50:04;17.20;99.90
9849;DHT22;4963;51.444;6.528;2023-09-19T00:52:33;17.20;99.90
9849;DHT22;4963;51.444;6.528;2023-09-19T00:55:05;17.10;99.90
9849;DHT22;4963;51.444;6.528;2023-09-19T00:57:33;17.10;99.90
9849;DHT22;4963;51.444;6.528;2023-09-19T01:00:00;17.10;99.90
9849;DHT22;4963;51.444;6.528;2023-09-19T01:02:31;17.10;99.90
9849;DHT22;4963;51.444;6.528;2023-09-19T01:04:58;17.10;99.90
9849;DHT22;4963;51.444;6.528;2023-09-19T01:07:26;17.00;99.90
9849;DHT22;4963;51.444;6.528;2023-09-19T01:09:55;17.00;99.90
9849;DHT22;4963;51.444;6.528;2023-09-19T01:12:33;17.10;99.90
9849;DHT22;4963;51.444;6.528;2023-09-19T01:15:06;17.10;99.90
9849;DHT22;4963;51.444;6.528;2023-09-19T01:17:43;17.10;99.90
9849;DHT22;4963;51.444;6.528;2023-09-19T01:20:21;17.20;99.90
9849;DHT22;4963;51.444;6.528;2023-09-19T01:23:00;17.10;99.90
9849;DHT22;4963;51.444;6.528;2023-09-19T01:28:34;16.90;99.90
9849;DHT22;4963;51.444;6.528;2023-09-19T01:31:10;16.90;99.90
9849;DHT22;4963;51.444;6.528;2023-09-19T01:33:58;16.90;99.90
9849;DHT22;4963;51.444;6.528;2023-09-19T01:36:31;16.90;99.90
9849;DHT22;4963;51.444;6.528;2023-09-19T01:39:00;16.90;99.90
9849;DHT22;4963;51.444;6.528;2023-09-19T01:41:49;16.90;99.90
9849;DHT22;4963;51.444;6.528;2023-09-19T01:44:24;16.80;99.90
9849;DHT22;4963;51.444;6.528;2023-09-19T01:46:58;16.80;99.90
9849;DHT22;4963;51.444;6.528;2023-09-19T01:49:31;16.80;99.90
9849;DHT22;4963;51.444;6.528;2023-09-19T01:52:04;16.70;99.90
9849;DHT22;4963;51.444;6.528;2023-09-19T01:54:36;16.80;99.90
9849;DHT22;4963;51.444;6.528;2023-09-19T01:57:12;16.70;99.90
9849;DHT22;4963;51.444;6.528;2023-09-19T01:59:45;16.70;99.90
9849;DHT22;4963;51.444;6.528;2023-09-19T02:02:20;16.70;99.90
9849;DHT22;4963;51.444;6.528;2023-09-19T02:04:48;16.70;99.90
9849;DHT22;4963;51.444;6.528;2023-09-19T02:07:16;16.70;99.90
9849;DHT22;4963;51.444;6.528;2023-09-19T02:09:43;16.70;99.90
9849;DHT22;4963;51.444;6.528;2023-09-19T02:12:10;16.70;99.90
9849;DHT22;4963;51.444;6.528;2023-09-19T02:14:37;16.70;99.90
9849;DHT22;4963;51.444;6.528;2023-09-19T02:17:04;16.70;99.90
9849;DHT22;4963;51.444;6.528;2023-09-19T02:19:34;16.70;99.90
9849;DHT22;4963;51.444;6.528;2023-09-19T02:22:02;16.70;99.90
9849;DHT22;4963;51.444;6.528;2023-09-19T02:24:36;16.70;99.90
9849;DHT22;4963;51.444;6.528;2023-09-19T02:27:04;16.70;99.90
9849;DHT22;4963;51.444;6.528;2023-09-19T02:29:33;16.60;99.90
9849;DHT22;4963;51.444;6.528;2023-09-19T02:32:00;16.60;99.90
9849;DHT22;4963;51.444;6.528;2023-09-19T02:34:28;16.60;99.90
9849;DHT22;4963;51.444;6.528;2023-09-19T02:36:57;16.60;99.90
9849;DHT22;4963;51.444;6.528;2023-09-19T02:39:24;16.60;99.90
9849;DHT22;4963;51.444;6.528;2023-09-19T02:41:51;16.60;99.90
9849;DHT22;4963;51.444;6.528;2023-09-19T02:44:18;16.50;99.90
9849;DHT22;4963;51.444;6.528;2023-09-19T02:46:46;16.50;99.90
9849;DHT22;4963;51.444;6.528;2023-09-19T02:49:13;16.50;99.90
9849;DHT22;4963;51.444;6.528;2023-09-19T02:51:41;16.50;99.90
9849;DHT22;4963;51.444;6.528;2023-09-19T02:54:09;16.50;99.90
9849;DHT22;4963;51.444;6.528;2023-09-19T02:56:37;16.50;99.90
9849;DHT22;4963;51.444;6.528;2023-09-19T02:59:04;16.50;99.90
9849;DHT22;4963;51.444;6.528;2023-09-19T03:01:32;16.60;99.90
9849;DHT22;4963;51.444;6.528;2023-09-19T03:03:59;16.50;99.90
9849;DHT22;4963;51.444;6.528;2023-09-19T03:06:26;16.50;99.90
9849;DHT22;4963;51.444;6.528;2023-09-19T03:08:54;16.50;99.90
9849;DHT22;4963;51.444;6.528;2023-09-19T03:11:25;16.50;99.90
9849;DHT22;4963;51.444;6.528;2023-09-19T03:13:53;16.50;99.90
9849;DHT22;4963;51.444;6.528;2023-09-19T03:16:20;16.50;99.90
9849;DHT22;4963;51.444;6.528;2023-09-19T03:18:51;16.50;99.90
9849;DHT22;4963;51.444;6.528;2023-09-19T03:21:18;16.40;99.90
9849;DHT22;4963;51.444;6.528;2023-09-19T03:23:47;16.40;99.90
9849;DHT22;4963;51.444;6.528;2023-09-19T03:26:17;16.30;99.90
9849;DHT22;4963;51.444;6.528;2023-09-19T03:28:46;16.30;99.90
9849;DHT22;4963;51.444;6.528;2023-09-19T03:31:13;16.30;99.90
9849;DHT22;4963;51.444;6.528;2023-09-19T03:33:40;16.30;99.90
9849;DHT22;4963;51.444;6.528;2023-09-19T03:36:07;16.30;99.90
9849;DHT22;4963;51.444;6.528;2023-09-19T03:38:35;16.20;99.90
9849;DHT22;4963;51.444;6.528;2023-09-19T03:41:02;16.30;99.90
9849;DHT22;4963;51.444;6.528;2023-09-19T03:43:29;16.30;99.90
9849;DHT22;4963;51.444;6.528;2023-09-19T03:46:01;16.20;99.90
9849;DHT22;4963;51.444;6.528;2023-09-19T03:48:30;16.20;99.90
9849;DHT22;4963;51.444;6.528;2023-09-19T03:50:57;16.10;99.90
9849;DHT22;4963;51.444;6.528;2023-09-19T03:53:24;16.10;99.90
9849;DHT22;4963;51.444;6.528;2023-09-19T03:55:51;16.10;99.90
9849;DHT22;4963;51.444;6.528;2023-09-19T03:58:18;16.00;99.90
9849;DHT22;4963;51.444;6.528;2023-09-19T04:00:46;15.90;99.90
9849;DHT22;4963;51.444;6.528;2023-09-19T04:03:15;15.90;99.90
9849;DHT22;4963;51.444;6.528;2023-09-19T04:05:46;16.00;99.90
9849;DHT22;4963;51.444;6.528;2023-09-19T04:08:13;15.90;99.90
9849;DHT22;4963;51.444;6.528;2023-09-19T04:10:42;15.90;99.90
9849;DHT22;4963;51.444;6.528;2023-09-19T04:13:10;15.90;99.90
9849;DHT22;4963;51.444;6.528;2023-09-19T04:15:37;15.90;99.90
9849;DHT22;4963;51.444;6.528;2023-09-19T04:18:06;15.90;99.90
9849;DHT22;4963;51.444;6.528;2023-09-19T04:20:34;15.80;99.90
9849;DHT22;4963;51.444;6.528;2023-09-19T04:23:01;15.90;99.90
9849;DHT22;4963;51.444;6.528;2023-09-19T04:25:30;15.80;99.90
9849;DHT22;4963;51.444;6.528;2023-09-19T04:27:58;15.80;99.90
9849;DHT22;4963;51.444;6.528;2023-09-19T04:30:25;15.80;99.90
9849;DHT22;4963;51.444;6.528;2023-09-19T04:32:52;15.80;99.90
9849;DHT22;4963;51.444;6.528;2023-09-19T04:35:19;15.80;99.90
9849;DHT22;4963;51.444;6.528;2023-09-19T04:37:48;15.90;99.90
9849;DHT22;4963;51.444;6.528;2023-09-19T04:40:15;16.00;99.90
9849;DHT22;4963;51.444;6.528;2023-09-19T04:42:43;16.00;99.90
9849;DHT22;4963;51.444;6.528;2023-09-19T04:45:10;15.90;99.90
9849;DHT22;4963;51.444;6.528;2023-09-19T04:47:38;15.90;99.90
9849;DHT22;4963;51.444;6.528;2023-09-19T04:50:07;15.90;99.90
9849;DHT22;4963;51.444;6.528;2023-09-19T04:52:38;15.90;99.90
9849;DHT22;4963;51.444;6.528;2023-09-19T04:55:08;15.90;99.90
9849;DHT22;4963;51.444;6.528;2023-09-19T04:57:35;15.90;99.90
9849;DHT22;4963;51.444;6.528;2023-09-19T05:00:03;15.80;99.90
9849;DHT22;4963;51.444;6.528;2023-09-19T05:02:38;15.90;99.90
9849;DHT22;4963;51.444;6.528;2023-09-19T05:05:06;15.90;99.90
9849;DHT22;4963;51.444;6.528;2023-09-19T05:07:33;15.90;99.90
9849;DHT22;4963;51.444;6.528;2023-09-19T05:10:01;15.90;99.90
9849;DHT22;4963;51.444;6.528;2023-09-19T05:12:33;15.90;99.90
9849;DHT22;4963;51.444;6.528;2023-09-19T05:15:00;16.00;99.90
9849;DHT22;4963;51.444;6.528;2023-09-19T05:17:28;16.00;99.90
9849;DHT22;4963;51.444;6.528;2023-09-19T05:19:55;16.10;99.90
9849;DHT22;4963;51.444;6.528;2023-09-19T05:22:23;16.10;99.90
9849;DHT22;4963;51.444;6.528;2023-09-19T05:24:51;16.10;99.90
9849;DHT22;4963;51.444;6.528;2023-09-19T05:27:18;16.20;99.90
9849;DHT22;4963;51.444;6.528;2023-09-19T05:29:48;16.20;99.90
9849;DHT22;4963;51.444;6.528;2023-09-19T05:32:16;16.20;99.90
9849;DHT22;4963;51.444;6.528;2023-09-19T05:34:45;16.10;99.90
9849;DHT22;4963;51.444;6.528;2023-09-19T05:37:13;16.10;99.90
9849;DHT22;4963;51.444;6.528;2023-09-19T05:39:41;16.10;99.90
9849;DHT22;4963;51.444;6.528;2023-09-19T05:42:09;16.20;99.90
9849;DHT22;4963;51.444;6.528;2023-09-19T05:44:36;16.10;99.90
9849;DHT22;4963;51.444;6.528;2023-09-19T05:47:05;16.10;99.90
9849;DHT22;4963;51.444;6.528;2023-09-19T05:49:34;16.10;99.90
9849;DHT22;4963;51.444;6.528;2023-09-19T05:52:04;16.10;99.90
9849;DHT22;4963;51.444;6.528;2023-09-19T05:54:31;16.10;99.90
9849;DHT22;4963;51.444;6.528;2023-09-19T05:56:59;16.20;99.90
9849;DHT22;4963;51.444;6.528;2023-09-19T05:59:27;16.30;99.90
9849;DHT22;4963;51.444;6.528;2023-09-19T06:01:54;16.30;99.90
9849;DHT22;4963;51.444;6.528;2023-09-19T06:04:22;16.20;99.90
9849;DHT22;4963;51.444;6.528;2023-09-19T06:06:49;16.20;99.90
9849;DHT22;4963;51.444;6.528;2023-09-19T06:09:16;16.20;99.90
9849;DHT22;4963;51.444;6.528;2023-09-19T06:11:44;16.20;99.90
9849;DHT22;4963;51.444;6.528;2023-09-19T06:14:12;16.30;99.90
9849;DHT22;4963;51.444;6.528;2023-09-19T06:16:40;16.30;99.90
9849;DHT22;4963;51.444;6.528;2023-09-19T06:19:08;16.30;99.90
9849;DHT22;4963;51.444;6.528;2023-09-19T06:21:37;16.30;99.90
9849;DHT22;4963;51.444;6.528;2023-09-19T06:24:05;16.30;99.90
9849;DHT22;4963;51.444;6.528;2023-09-19T06:26:32;16.30;99.90
9849;DHT22;4963;51.444;6.528;2023-09-19T06:28:59;16.30;99.90
9849;DHT22;4963;51.444;6.528;2023-09-19T06:31:26;16.30;99.90
9849;DHT22;4963;51.444;6.528;2023-09-19T06:33:53;16.30;99.90
9849;DHT22;4963;51.444;6.528;2023-09-19T06:36:20;16.30;99.90
9849;DHT22;4963;51.444;6.528;2023-09-19T06:38:48;16.30;99.90
9849;DHT22;4963;51.444;6.528;2023-09-19T06:41:17;16.30;99.90
9849;DHT22;4963;51.444;6.528;2023-09-19T06:43:44;16.30;99.90
9849;DHT22;4963;51.444;6.528;2023-09-19T06:46:11;16.30;99.90
9849;DHT22;4963;51.444;6.528;2023-09-19T06:48:38;16.30;99.90
9849;DHT22;4963;51.444;6.528;2023-09-19T06:51:05;16.40;99.90
9849;DHT22;4963;51.444;6.528;2023-09-19T06:53:32;16.50;99.90
9849;DHT22;4963;51.444;6.528;2023-09-19T06:56:01;16.60;99.90
9849;DHT22;4963;51.444;6.528;2023-09-19T06:58:29;16.60;99.90
9849;DHT22;4963;51.444;6.528;2023-09-19T07:00:57;16.60;99.90
9849;DHT22;4963;51.444;6.528;2023-09-19T07:03:24;16.50;99.90
9849;DHT22;4963;51.444;6.528;2023-09-19T07:05:52;16.50;99.90
9849;DHT22;4963;51.444;6.528;2023-09-19T07:08:21;16.60;99.90
9849;DHT22;4963;51.444;6.528;2023-09-19T07:10:49;16.60;99.90
9849;DHT22;4963;51.444;6.528;2023-09-19T07:13:19;16.70;99.90
9849;DHT22;4963;51.444;6.528;2023-09-19T07:15:46;16.70;99.90
9849;DHT22;4963;51.444;6.528;2023-09-19T07:18:13;16.70;99.90
9849;DHT22;4963;51.444;6.528;2023-09-19T07:20:42;16.70;99.90
9849;DHT22;4963;51.444;6.528;2023-09-19T07:23:15;16.80;99.90
9849;DHT22;4963;51.444;6.528;2023-09-19T07:25:42;16.90;99.90
9849;DHT22;4963;51.444;6.528;2023-09-19T07:28:09;16.90;99.90
9849;DHT22;4963;51.444;6.528;2023-09-19T07:30:37;16.90;99.90
9849;DHT22;4963;51.444;6.528;2023-09-19T07:33:05;16.80;99.90
9849;DHT22;4963;51.444;6.528;2023-09-19T07:35:32;16.90;99.90
9849;DHT22;4963;51.444;6.528;2023-09-19T07:38:00;16.90;99.90
9849;DHT22;4963;51.444;6.528;2023-09-19T07:40:28;16.80;99.90
9849;DHT22;4963;51.444;6.528;2023-09-19T07:42:55;16.80;99.90
9849;DHT22;4963;51.444;6.528;2023-09-19T07:45:22;16.80;99.90
9849;DHT22;4963;51.444;6.528;2023-09-19T07:47:52;16.90;99.90
9849;DHT22;4963;51.444;6.528;2023-09-19T07:50:19;16.90;99.90
9849;DHT22;4963;51.444;6.528;2023-09-19T07:52:47;17.00;99.90
9849;DHT22;4963;51.444;6.528;2023-09-19T08:01:40;17.20;99.90
9849;DHT22;4963;51.444;6.528;2023-09-19T08:04:11;17.30;99.90
9849;DHT22;4963;51.444;6.528;2023-09-19T08:06:38;17.30;99.90
9849;DHT22;4963;51.444;6.528;2023-09-19T08:09:05;17.30;99.90
9849;DHT22;4963;51.444;6.528;2023-09-19T08:11:33;17.40;99.90
9849;DHT22;4963;51.444;6.528;2023-09-19T08:14:00;17.40;99.90
9849;DHT22;4963;51.444;6.528;2023-09-19T08:16:27;17.50;99.90
9849;DHT22;4963;51.444;6.528;2023-09-19T08:18:54;17.40;99.90
9849;DHT22;4963;51.444;6.528;2023-09-19T08:21:23;17.40;99.90
9849;DHT22;4963;51.444;6.528;2023-09-19T08:23:51;17.50;99.90
9849;DHT22;4963;51.444;6.528;2023-09-19T08:26:19;17.70;99.90
9849;DHT22;4963;51.444;6.528;2023-09-19T08:28:47;18.00;99.90
9849;DHT22;4963;51.444;6.528;2023-09-19T08:31:16;18.20;99.90
9849;DHT22;4963;51.444;6.528;2023-09-19T08:33:43;18.30;99.90
9849;DHT22;4963;51.444;6.528;2023-09-19T08:36:15;18.30;99.90
9849;DHT22;4963;51.444;6.528;2023-09-19T08:38:44;18.50;99.90
9849;DHT22;4963;51.444;6.528;2023-09-19T08:41:10;18.60;99.90
9849;DHT22;4963;51.444;6.528;2023-09-19T08:43:37;18.70;99.90
9849;DHT22;4963;51.444;6.528;2023-09-19T08:46:10;18.60;99.90
9849;DHT22;4963;51.444;6.528;2023-09-19T08:48:42;18.70;99.90
9849;DHT22;4963;51.444;6.528;2023-09-19T08:51:18;18.60;99.90
9849;DHT22;4963;51.444;6.528;2023-09-19T08:53:51;18.60;99.90
9849;DHT22;4963;51.444;6.528;2023-09-19T08:56:19;18.70;99.90
9849;DHT22;4963;51.444;6.528;2023-09-19T08:58:50;18.70;99.90
9849;DHT22;4963;51.444;6.528;2023-09-19T09:01:20;18.70;99.90
9849;DHT22;4963;51.444;6.528;2023-09-19T09:03:51;18.60;99.90
9849;DHT22;4963;51.444;6.528;2023-09-19T09:06:20;18.60;99.90
9849;DHT22;4963;51.444;6.528;2023-09-19T09:08:47;18.50;99.90
9849;DHT22;4963;51.444;6.528;2023-09-19T09:11:16;18.60;99.90
9849;DHT22;4963;51.444;6.528;2023-09-19T09:13:44;18.70;99.90
9849;DHT22;4963;51.444;6.528;2023-09-19T09:16:12;18.70;99.90
9849;DHT22;4963;51.444;6.528;2023-09-19T09:18:39;18.80;99.90
9849;DHT22;4963;51.444;6.528;2023-09-19T09:21:07;18.70;99.90
9849;DHT22;4963;51.444;6.528;2023-09-19T09:23:34;18.80;99.90
9849;DHT22;4963;51.444;6.528;2023-09-19T09:26:01;18.80;99.90
9849;DHT22;4963;51.444;6.528;2023-09-19T09:28:33;18.80;99.90
9849;DHT22;4963;51.444;6.528;2023-09-19T09:31:01;18.80;99.90
9849;DHT22;4963;51.444;6.528;2023-09-19T09:33:34;18.80;99.90
9849;DHT22;4963;51.444;6.528;2023-09-19T09:36:02;18.80;99.90
9849;DHT22;4963;51.444;6.528;2023-09-19T09:38:43;18.90;99.90
9849;DHT22;4963;51.444;6.528;2023-09-19T09:41:11;18.90;99.90
9849;DHT22;4963;51.444;6.528;2023-09-19T09:43:43;18.90;99.90
9849;DHT22;4963;51.444;6.528;2023-09-19T09:46:14;19.00;99.90
9849;DHT22;4963;51.444;6.528;2023-09-19T09:49:10;19.00;99.90
9849;DHT22;4963;51.444;6.528;2023-09-19T09:51:48;19.10;99.90
9849;DHT22;4963;51.444;6.528;2023-09-19T09:54:24;19.10;99.90
9849;DHT22;4963;51.444;6.528;2023-09-19T09:56:56;19.20;99.90
9849;DHT22;4963;51.444;6.528;2023-09-19T09:59:47;19.20;99.90
9849;DHT22;4963;51.444;6.528;2023-09-19T10:02:15;19.20;99.90
9849;DHT22;4963;51.444;6.528;2023-09-19T10:04:48;19.10;99.90
9849;DHT22;4963;51.444;6.528;2023-09-19T10:07:34;19.20;99.90
9849;DHT22;4963;51.444;6.528;2023-09-19T10:10:07;19.20;99.90
9849;DHT22;4963;51.444;6.528;2023-09-19T10:12:45;19.30;99.90
9849;DHT22;4963;51.444;6.528;2023-09-19T10:15:16;19.40;99.90
9849;DHT22;4963;51.444;6.528;2023-09-19T10:17:47;19.50;99.90
9849;DHT22;4963;51.444;6.528;2023-09-19T10:20:15;19.40;99.90
9849;DHT22;4963;51.444;6.528;2023-09-19T10:23:00;19.30;99.90
9849;DHT22;4963;51.444;6.528;2023-09-19T10:25:28;19.30;99.90
9849;DHT22;4963;51.444;6.528;2023-09-19T10:27:57;19.20;99.90
9849;DHT22;4963;51.444;6.528;2023-09-19T10:30:27;19.20;99.90
9849;DHT22;4963;51.444;6.528;2023-09-19T10:33:00;19.20;99.90
9849;DHT22;4963;51.444;6.528;2023-09-19T10:35:28;19.30;99.90
9849;DHT22;4963;51.444;6.528;2023-09-19T10:37:58;19.30;99.90
9849;DHT22;4963;51.444;6.528;2023-09-19T10:40:27;19.30;99.90
9849;DHT22;4963;51.444;6.528;2023-09-19T10:43:02;19.40;99.90
9849;DHT22;4963;51.444;6.528;2023-09-19T10:45:34;19.40;99.90
9849;DHT22;4963;51.444;6.528;2023-09-19T10:48:04;19.50;99.90
9849;DHT22;4963;51.444;6.528;2023-09-19T10:50:43;19.40;99.90
9849;DHT22;4963;51.444;6.528;2023-09-19T10:53:12;19.50;99.90
9849;DHT22;4963;51.444;6.528;2023-09-19T10:55:41;19.60;99.90
9849;DHT22;4963;51.444;6.528;2023-09-19T10:58:25;19.60;99.90
9849;DHT22;4963;51.444;6.528;2023-09-19T11:00:56;19.50;99.90
9849;DHT22;4963;51.444;6.528;2023-09-19T11:03:28;19.40;99.90
9849;DHT22;4963;51.444;6.528;2023-09-19T11:06:08;19.50;99.90
9849;DHT22;4963;51.444;6.528;2023-09-19T11:08:58;19.50;99.90
9849;DHT22;4963;51.444;6.528;2023-09-19T11:11:52;19.60;99.90
9849;DHT22;4963;51.444;6.528;2023-09-19T11:14:42;19.70;99.90
9849;DHT22;4963;51.444;6.528;2023-09-19T11:17:41;19.80;99.90
9849;DHT22;4963;51.444;6.528;2023-09-19T11:20:21;19.80;99.90
9849;DHT22;4963;51.444;6.528;2023-09-19T11:23:25;19.70;99.90
9849;DHT22;4963;51.444;6.528;2023-09-19T11:25:53;19.70;99.90
9849;DHT22;4963;51.444;6.528;2023-09-19T11:28:44;19.70;99.90
9849;DHT22;4963;51.444;6.528;2023-09-19T11:34:45;19.80;99.90
9849;DHT22;4963;51.444;6.528;2023-09-19T11:40:33;19.90;99.90
9849;DHT22;4963;51.444;6.528;2023-09-19T11:43:30;19.90;99.90
9849;DHT22;4963;51.444;6.528;2023-09-19T11:46:06;19.90;99.90
9849;DHT22;4963;51.444;6.528;2023-09-19T11:48:35;19.90;99.90
9849;DHT22;4963;51.444;6.528;2023-09-19T11:51:18;19.90;99.90
9849;DHT22;4963;51.444;6.528;2023-09-19T11:53:48;20.00;99.90
9849;DHT22;4963;51.444;6.528;2023-09-19T11:56:17;20.00;99.90
9849;DHT22;4963;51.444;6.528;2023-09-19T11:58:46;20.00;99.90
9849;DHT22;4963;51.444;6.528;2023-09-19T12:01:16;20.00;99.90
9849;DHT22;4963;51.444;6.528;2023-09-19T12:03:55;20.00;99.90
9849;DHT22;4963;51.444;6.528;2023-09-19T12:06:26;20.10;99.90
9849;DHT22;4963;51.444;6.528;2023-09-19T12:08:53;20.10;99.90
9849;DHT22;4963;51.444;6.528;2023-09-19T12:11:22;20.10;99.90
9849;DHT22;4963;51.444;6.528;2023-09-19T12:13:50;20.10;99.90
9849;DHT22;4963;51.444;6.528;2023-09-19T12:16:19;20.10;99.90
9849;DHT22;4963;51.444;6.528;2023-09-19T12:18:49;20.10;99.80
9849;DHT22;4963;51.444;6.528;2023-09-19T12:21:28;20.10;99.40
9849;DHT22;4963;51.444;6.528;2023-09-19T12:24:04;20.20;99.50
9849;DHT22;4963;51.444;6.528;2023-09-19T12:26:39;20.20;98.70
9849;DHT22;4963;51.444;6.528;2023-09-19T12:29:12;20.20;99.40
9849;DHT22;4963;51.444;6.528;2023-09-19T12:31:51;20.20;99.50
9849;DHT22;4963;51.444;6.528;2023-09-19T12:34:22;20.30;99.90
9849;DHT22;4963;51.444;6.528;2023-09-19T12:37:05;20.30;99.30
9849;DHT22;4963;51.444;6.528;2023-09-19T12:39:37;20.40;99.50
9849;DHT22;4963;51.444;6.528;2023-09-19T12:42:07;20.40;99.40
9849;DHT22;4963;51.444;6.528;2023-09-19T12:44:36;20.50;99.40
9849;DHT22;4963;51.444;6.528;2023-09-19T12:47:14;20.50;98.60
9849;DHT22;4963;51.444;6.528;2023-09-19T12:50:11;20.40;99.40
9849;DHT22;4963;51.444;6.528;2023-09-19T12:52:45;20.50;99.60
9849;DHT22;4963;51.444;6.528;2023-09-19T12:55:26;20.50;99.40
9849;DHT22;4963;51.444;6.528;2023-09-19T12:58:01;20.50;99.80
9849;DHT22;4963;51.444;6.528;2023-09-19T13:00:35;20.50;99.20
9849;DHT22;4963;51.444;6.528;2023-09-19T13:03:13;20.50;99.20
9849;DHT22;4963;51.444;6.528;2023-09-19T13:05:48;20.50;99.60
9849;DHT22;4963;51.444;6.528;2023-09-19T13:08:22;20.50;99.00
9849;DHT22;4963;51.444;6.528;2023-09-19T13:11:09;20.40;99.00
9849;DHT22;4963;51.444;6.528;2023-09-19T13:13:38;20.40;99.10
9849;DHT22;4963;51.444;6.528;2023-09-19T13:16:07;20.40;99.10
9849;DHT22;4963;51.444;6.528;2023-09-19T13:18:48;20.40;99.30
9849;DHT22;4963;51.444;6.528;2023-09-19T13:21:17;20.40;99.80
9849;DHT22;4963;51.444;6.528;2023-09-19T13:23:55;20.40;99.80
9849;DHT22;4963;51.444;6.528;2023-09-19T13:26:25;20.50;99.50
9849;DHT22;4963;51.444;6.528;2023-09-19T13:28:53;20.40;99.00
9849;DHT22;4963;51.444;6.528;2023-09-19T13:31:20;20.40;99.90
9849;DHT22;4963;51.444;6.528;2023-09-19T13:33:49;20.50;99.90
9849;DHT22;4963;51.444;6.528;2023-09-19T13:36:17;20.40;99.90
9849;DHT22;4963;51.444;6.528;2023-09-19T13:38:44;20.40;99.90
9849;DHT22;4963;51.444;6.528;2023-09-19T13:41:15;20.40;99.90
9849;DHT22;4963;51.444;6.528;2023-09-19T13:43:44;20.40;99.90
9849;DHT22;4963;51.444;6.528;2023-09-19T13:46:13;20.40;99.90
9849;DHT22;4963;51.444;6.528;2023-09-19T13:48:42;20.30;99.90
9849;DHT22;4963;51.444;6.528;2023-09-19T13:51:09;20.30;99.90
9849;DHT22;4963;51.444;6.528;2023-09-19T13:53:36;20.30;99.90
9849;DHT22;4963;51.444;6.528;2023-09-19T13:56:03;20.30;99.90
9849;DHT22;4963;51.444;6.528;2023-09-19T13:58:31;20.20;99.90
9849;DHT22;4963;51.444;6.528;2023-09-19T14:00:59;20.10;99.90
9849;DHT22;4963;51.444;6.528;2023-09-19T14:03:26;20.10;99.90
9849;DHT22;4963;51.444;6.528;2023-09-19T14:05:54;20.00;99.90
9849;DHT22;4963;51.444;6.528;2023-09-19T14:08:21;20.00;99.90
9849;DHT22;4963;51.444;6.528;2023-09-19T14:10:49;20.00;99.90
9849;DHT22;4963;51.444;6.528;2023-09-19T14:13:16;20.00;99.90
9849;DHT22;4963;51.444;6.528;2023-09-19T14:15:44;20.00;99.90
9849;DHT22;4963;51.444;6.528;2023-09-19T14:18:11;20.10;99.90
9849;DHT22;4963;51.444;6.528;2023-09-19T14:20:39;20.10;99.90
9849;DHT22;4963;51.444;6.528;2023-09-19T14:23:07;20.00;99.90
9849;DHT22;4963;51.444;6.528;2023-09-19T14:25:34;20.00;99.90
9849;DHT22;4963;51.444;6.528;2023-09-19T14:28:02;20.00;99.90
9849;DHT22;4963;51.444;6.528;2023-09-19T14:30:28;20.00;99.90
9849;DHT22;4963;51.444;6.528;2023-09-19T14:32:57;20.10;99.90
9849;DHT22;4963;51.444;6.528;2023-09-19T14:35:24;20.10;99.90
9849;DHT22;4963;51.444;6.528;2023-09-19T14:37:51;20.10;99.90
9849;DHT22;4963;51.444;6.528;2023-09-19T14:40:18;20.00;99.90
9849;DHT22;4963;51.444;6.528;2023-09-19T14:42:45;20.00;99.90
9849;DHT22;4963;51.444;6.528;2023-09-19T14:45:13;20.00;99.90
9849;DHT22;4963;51.444;6.528;2023-09-19T14:47:43;19.90;99.90
9849;DHT22;4963;51.444;6.528;2023-09-19T14:50:12;19.90;99.90
9849;DHT22;4963;51.444;6.528;2023-09-19T14:52:38;19.90;99.90
9849;DHT22;4963;51.444;6.528;2023-09-19T14:55:07;19.80;99.90
9849;DHT22;4963;51.444;6.528;2023-09-19T14:57:40;19.80;99.90
9849;DHT22;4963;51.444;6.528;2023-09-19T15:00:08;19.80;99.90
9849;DHT22;4963;51.444;6.528;2023-09-19T15:02:39;19.80;99.90
9849;DHT22;4963;51.444;6.528;2023-09-19T15:05:09;19.80;99.90
9849;DHT22;4963;51.444;6.528;2023-09-19T15:07:38;19.80;99.90
9849;DHT22;4963;51.444;6.528;2023-09-19T15:10:06;19.80;99.90
9849;DHT22;4963;51.444;6.528;2023-09-19T15:12:35;19.80;99.90
9849;DHT22;4963;51.444;6.528;2023-09-19T15:15:04;19.80;99.90
9849;DHT22;4963;51.444;6.528;2023-09-19T15:17:33;19.80;99.90
9849;DHT22;4963;51.444;6.528;2023-09-19T15:20:00;19.80;99.90
9849;DHT22;4963;51.444;6.528;2023-09-19T15:22:32;19.90;99.90
9849;DHT22;4963;51.444;6.528;2023-09-19T15:25:00;19.90;99.90
9849;DHT22;4963;51.444;6.528;2023-09-19T15:27:27;19.90;99.90
9849;DHT22;4963;51.444;6.528;2023-09-19T15:29:56;19.90;99.90
9849;DHT22;4963;51.444;6.528;2023-09-19T15:32:23;19.90;99.90
9849;DHT22;4963;51.444;6.528;2023-09-19T15:34:50;19.90;99.90
9849;DHT22;4963;51.444;6.528;2023-09-19T15:37:17;19.90;99.90
9849;DHT22;4963;51.444;6.528;2023-09-19T15:39:44;19.90;99.90
9849;DHT22;4963;51.444;6.528;2023-09-19T15:42:13;19.90;99.90
9849;DHT22;4963;51.444;6.528;2023-09-19T15:44:42;19.90;99.90
9849;DHT22;4963;51.444;6.528;2023-09-19T15:47:09;19.90;99.90
9849;DHT22;4963;51.444;6.528;2023-09-19T15:49:38;19.90;99.90
9849;DHT22;4963;51.444;6.528;2023-09-19T15:52:05;19.90;99.90
9849;DHT22;4963;51.444;6.528;2023-09-19T15:54:34;19.80;99.90
9849;DHT22;4963;51.444;6.528;2023-09-19T15:57:01;19.80;99.90
9849;DHT22;4963;51.444;6.528;2023-09-19T15:59:29;19.80;99.90
9849;DHT22;4963;51.444;6.528;2023-09-19T16:01:56;19.80;99.90
9849;DHT22;4963;51.444;6.528;2023-09-19T16:04:23;19.70;99.90
9849;DHT22;4963;51.444;6.528;2023-09-19T16:06:51;19.70;99.90
9849;DHT22;4963;51.444;6.528;2023-09-19T16:09:18;19.70;99.90
9849;DHT22;4963;51.444;6.528;2023-09-19T16:11:45;19.70;99.90
9849;DHT22;4963;51.444;6.528;2023-09-19T16:14:14;19.70;99.90
9849;DHT22;4963;51.444;6.528;2023-09-19T16:16:42;19.70;99.90
9849;DHT22;4963;51.444;6.528;2023-09-19T16:19:09;19.70;99.90
9849;DHT22;4963;51.444;6.528;2023-09-19T16:21:37;19.70;99.90
9849;DHT22;4963;51.444;6.528;2023-09-19T16:24:06;19.70;99.90
9849;DHT22;4963;51.444;6.528;2023-09-19T16:26:35;19.70;99.90
9849;DHT22;4963;51.444;6.528;2023-09-19T16:29:02;19.80;99.90
9849;DHT22;4963;51.444;6.528;2023-09-19T16:31:30;19.70;99.90
9849;DHT22;4963;51.444;6.528;2023-09-19T16:33:59;19.70;99.90
9849;DHT22;4963;51.444;6.528;2023-09-19T16:36:27;19.80;99.90